sensor_id;sensor_type;location;lat;lon;timestamp;temperature;humidity
8103;DHT22;4094;49.948;11.574;2023-04-08T00:00:07;11.00;45.50
8103;DHT22;4094;49.948;11.574;2023-04-08T00:02:40;11.00;45.50
8103;DHT22;4094;49.948;11.574;2023-04-08T00:05:10;11.00;45.60
8103;DHT22;4094;49.948;11.574;2023-04-08T00:07:39;11.00;45.50
8103;DHT22;4094;49.948;11.574;2023-04-08T00:10:09;11.00;45.50
8103;DHT22;4094;49.948;11.574;2023-04-08T00:12:38;11.00;45.70
8103;DHT22;4094;49.948;11.574;2023-04-08T00:15:08;11.00;45.90
8103;DHT22;4094;49.948;11.574;2023-04-08T00:17:38;10.90;45.80
8103;DHT22;4094;49.948;11.574;2023-04-08T00:20:07;11.00;45.80
8103;DHT22;4094;49.948;11.574;2023-04-08T00:22:36;11.00;45.90
8103;DHT22;4094;49.948;11.574;2023-04-08T00:25:06;11.00;46.00
8103;DHT22;4094;49.948;11.574;2023-04-08T00:27:38;11.00;46.00
8103;DHT22;4094;49.948;11.574;2023-04-08T00:30:07;11.00;46.20
8103;DHT22;4094;49.948;11.574;2023-04-08T00:32:37;11.00;46.20
8103;DHT22;4094;49.948;11.574;2023-04-08T00:35:06;11.00;46.20
8103;DHT22;4094;49.948;11.574;2023-04-08T00:37:36;11.00;46.30
8103;DHT22;4094;49.948;11.574;2023-04-08T00:40:06;11.00;46.20
8103;DHT22;4094;49.948;11.574;2023-04-08T00:42:35;11.00;46.20
8103;DHT22;4094;49.948;11.574;2023-04-08T00:45:06;11.00;46.20
8103;DHT22;4094;49.948;11.574;2023-04-08T00:47:36;11.00;46.30
8103;DHT22;4094;49.948;11.574;2023-04-08T00:50:07;11.00;46.30
8103;DHT22;4094;49.948;11.574;2023-04-08T00:52:36;11.00;46.30
8103;DHT22;4094;49.948;11.574;2023-04-08T00:55:06;11.00;46.40
8103;DHT22;4094;49.948;11.574;2023-04-08T00:57:35;11.00;46.40
8103;DHT22;4094;49.948;11.574;2023-04-08T01:00:08;11.00;46.40
8103;DHT22;4094;49.948;11.574;2023-04-08T01:02:44;11.00;47.10
8103;DHT22;4094;49.948;11.574;2023-04-08T01:05:23;11.00;46.70
8103;DHT22;4094;49.948;11.574;2023-04-08T01:07:58;11.00;46.60
8103;DHT22;4094;49.948;11.574;2023-04-08T01:10:30;11.00;46.70
8103;DHT22;4094;49.948;11.574;2023-04-08T01:13:04;11.00;46.70
8103;DHT22;4094;49.948;11.574;2023-04-08T01:15:37;11.10;46.90
8103;DHT22;4094;49.948;11.574;2023-04-08T01:18:10;11.00;46.90
8103;DHT22;4094;49.948;11.574;2023-04-08T01:20:41;11.10;46.90
8103;DHT22;4094;49.948;11.574;2023-04-08T01:23:17;11.10;46.90
8103;DHT22;4094;49.948;11.574;2023-04-08T01:25:50;11.10;47.10
8103;DHT22;4094;49.948;11.574;2023-04-08T01:28:22;11.10;46.90
8103;DHT22;4094;49.948;11.574;2023-04-08T01:30:53;11.10;47.00
8103;DHT22;4094;49.948;11.574;2023-04-08T01:33:23;11.10;47.10
8103;DHT22;4094;49.948;11.574;2023-04-08T01:35:55;11.10;46.80
8103;DHT22;4094;49.948;11.574;2023-04-08T01:38:26;11.10;46.90
8103;DHT22;4094;49.948;11.574;2023-04-08T01:40:57;11.10;46.90
8103;DHT22;4094;49.948;11.574;2023-04-08T01:43:27;11.00;46.80
8103;DHT22;4094;49.948;11.574;2023-04-08T01:45:59;11.10;46.90
8103;DHT22;4094;49.948;11.574;2023-04-08T01:48:30;11.00;47.00
8103;DHT22;4094;49.948;11.574;2023-04-08T01:51:00;11.00;47.00
8103;DHT22;4094;49.948;11.574;2023-04-08T01:53:30;11.00;47.10
8103;DHT22;4094;49.948;11.574;2023-04-08T01:56:05;11.00;47.20
8103;DHT22;4094;49.948;11.574;2023-04-08T01:58:37;11.00;47.50
8103;DHT22;4094;49.948;11.574;2023-04-08T02:01:12;11.00;47.20
8103;DHT22;4094;49.948;11.574;2023-04-08T02:03:43;11.00;47.20
8103;DHT22;4094;49.948;11.574;2023-04-08T02:06:13;11.00;47.10
8103;DHT22;4094;49.948;11.574;2023-04-08T02:08:44;11.00;47.10
8103;DHT22;4094;49.948;11.574;2023-04-08T02:11:14;11.00;47.20
8103;DHT22;4094;49.948;11.574;2023-04-08T02:13:44;11.00;47.20
8103;DHT22;4094;49.948;11.574;2023-04-08T02:16:17;11.00;47.10
8103;DHT22;4094;49.948;11.574;2023-04-08T02:18:55;10.90;47.10
8103;DHT22;4094;49.948;11.574;2023-04-08T02:21:30;10.90;47.10
8103;DHT22;4094;49.948;11.574;2023-04-08T02:24:04;10.90;47.10
8103;DHT22;4094;49.948;11.574;2023-04-08T02:26:42;10.90;47.10
8103;DHT22;4094;49.948;11.574;2023-04-08T02:29:13;10.90;47.20
8103;DHT22;4094;49.948;11.574;2023-04-08T02:31:46;10.90;47.20
8103;DHT22;4094;49.948;11.574;2023-04-08T02:34:17;10.90;47.30
8103;DHT22;4094;49.948;11.574;2023-04-08T02:36:46;10.80;47.50
8103;DHT22;4094;49.948;11.574;2023-04-08T02:39:18;10.90;47.80
8103;DHT22;4094;49.948;11.574;2023-04-08T02:41:50;10.90;48.00
8103;DHT22;4094;49.948;11.574;2023-04-08T02:44:21;10.80;48.00
8103;DHT22;4094;49.948;11.574;2023-04-08T02:46:51;10.80;48.40
8103;DHT22;4094;49.948;11.574;2023-04-08T02:49:20;10.80;48.70
8103;DHT22;4094;49.948;11.574;2023-04-08T02:51:49;10.70;48.90
8103;DHT22;4094;49.948;11.574;2023-04-08T02:54:18;10.70;49.20
8103;DHT22;4094;49.948;11.574;2023-04-08T02:56:49;10.70;49.50
8103;DHT22;4094;49.948;11.574;2023-04-08T02:59:18;10.70;50.00
8103;DHT22;4094;49.948;11.574;2023-04-08T03:01:48;10.60;50.00
8103;DHT22;4094;49.948;11.574;2023-04-08T03:04:17;10.60;50.30
8103;DHT22;4094;49.948;11.574;2023-04-08T03:06:46;10.50;50.50
8103;DHT22;4094;49.948;11.574;2023-04-08T03:09:15;10.50;50.90
8103;DHT22;4094;49.948;11.574;2023-04-08T03:11:45;10.50;51.40
8103;DHT22;4094;49.948;11.574;2023-04-08T03:14:21;10.40;51.40
8103;DHT22;4094;49.948;11.574;2023-04-08T03:16:50;10.40;51.70
8103;DHT22;4094;49.948;11.574;2023-04-08T03:19:19;10.30;51.90
8103;DHT22;4094;49.948;11.574;2023-04-08T03:21:48;10.30;52.10
8103;DHT22;4094;49.948;11.574;2023-04-08T03:24:17;10.30;52.40
8103;DHT22;4094;49.948;11.574;2023-04-08T03:26:46;10.20;52.40
8103;DHT22;4094;49.948;11.574;2023-04-08T03:29:15;10.20;52.60
8103;DHT22;4094;49.948;11.574;2023-04-08T03:31:46;10.20;53.00
8103;DHT22;4094;49.948;11.574;2023-04-08T03:34:15;10.10;53.20
8103;DHT22;4094;49.948;11.574;2023-04-08T03:36:44;10.10;53.50
8103;DHT22;4094;49.948;11.574;2023-04-08T03:39:13;10.10;53.50
8103;DHT22;4094;49.948;11.574;2023-04-08T03:41:42;10.00;53.70
8103;DHT22;4094;49.948;11.574;2023-04-08T03:44:12;10.00;54.00
8103;DHT22;4094;49.948;11.574;2023-04-08T03:46:40;10.00;54.10
8103;DHT22;4094;49.948;11.574;2023-04-08T03:49:11;9.90;54.20
8103;DHT22;4094;49.948;11.574;2023-04-08T03:51:40;9.90;54.30
8103;DHT22;4094;49.948;11.574;2023-04-08T03:54:09;9.90;54.30
8103;DHT22;4094;49.948;11.574;2023-04-08T03:56:38;9.90;54.50
8103;DHT22;4094;49.948;11.574;2023-04-08T03:59:08;9.80;54.60
8103;DHT22;4094;49.948;11.574;2023-04-08T04:01:37;9.80;54.90
8103;DHT22;4094;49.948;11.574;2023-04-08T04:04:08;9.80;55.20
8103;DHT22;4094;49.948;11.574;2023-04-08T04:06:39;9.70;55.20
8103;DHT22;4094;49.948;11.574;2023-04-08T04:09:08;9.70;55.30
8103;DHT22;4094;49.948;11.574;2023-04-08T04:11:38;9.70;55.40
8103;DHT22;4094;49.948;11.574;2023-04-08T04:14:07;9.70;55.40
8103;DHT22;4094;49.948;11.574;2023-04-08T04:16:37;9.70;55.50
8103;DHT22;4094;49.948;11.574;2023-04-08T04:19:06;9.70;55.60
8103;DHT22;4094;49.948;11.574;2023-04-08T04:21:35;9.60;55.60
8103;DHT22;4094;49.948;11.574;2023-04-08T04:24:06;9.60;55.60
8103;DHT22;4094;49.948;11.574;2023-04-08T04:26:35;9.60;55.90
8103;DHT22;4094;49.948;11.574;2023-04-08T04:29:04;9.60;55.90
8103;DHT22;4094;49.948;11.574;2023-04-08T04:31:33;9.50;55.80
8103;DHT22;4094;49.948;11.574;2023-04-08T04:34:03;9.50;56.20
8103;DHT22;4094;49.948;11.574;2023-04-08T04:36:32;9.50;56.20
8103;DHT22;4094;49.948;11.574;2023-04-08T04:39:02;9.40;56.40
8103;DHT22;4094;49.948;11.574;2023-04-08T04:41:33;9.40;56.60
8103;DHT22;4094;49.948;11.574;2023-04-08T04:44:07;9.40;56.80
8103;DHT22;4094;49.948;11.574;2023-04-08T04:46:36;9.30;56.70
8103;DHT22;4094;49.948;11.574;2023-04-08T04:49:06;9.40;57.00
8103;DHT22;4094;49.948;11.574;2023-04-08T04:51:35;9.30;57.20
8103;DHT22;4094;49.948;11.574;2023-04-08T04:54:04;9.30;57.20
8103;DHT22;4094;49.948;11.574;2023-04-08T04:56:35;9.30;57.20
8103;DHT22;4094;49.948;11.574;2023-04-08T04:59:04;9.30;57.40
8103;DHT22;4094;49.948;11.574;2023-04-08T05:01:33;9.30;57.30
8103;DHT22;4094;49.948;11.574;2023-04-08T05:04:03;9.30;57.40
8103;DHT22;4094;49.948;11.574;2023-04-08T05:06:32;9.30;57.40
8103;DHT22;4094;49.948;11.574;2023-04-08T05:09:01;9.30;57.60
8103;DHT22;4094;49.948;11.574;2023-04-08T05:11:31;9.30;57.70
8103;DHT22;4094;49.948;11.574;2023-04-08T05:14:01;9.20;57.50
8103;DHT22;4094;49.948;11.574;2023-04-08T05:16:31;9.30;58.10
8103;DHT22;4094;49.948;11.574;2023-04-08T05:19:00;9.20;57.80
8103;DHT22;4094;49.948;11.574;2023-04-08T05:21:29;9.20;57.80
8103;DHT22;4094;49.948;11.574;2023-04-08T05:23:59;9.20;57.90
8103;DHT22;4094;49.948;11.574;2023-04-08T05:26:28;9.20;57.90
8103;DHT22;4094;49.948;11.574;2023-04-08T05:28:58;9.20;58.00
8103;DHT22;4094;49.948;11.574;2023-04-08T05:31:28;9.20;58.20
8103;DHT22;4094;49.948;11.574;2023-04-08T05:33:58;9.20;58.30
8103;DHT22;4094;49.948;11.574;2023-04-08T05:36:27;9.20;58.20
8103;DHT22;4094;49.948;11.574;2023-04-08T05:38:56;9.20;58.90
8103;DHT22;4094;49.948;11.574;2023-04-08T05:41:26;9.20;58.40
8103;DHT22;4094;49.948;11.574;2023-04-08T05:43:56;9.20;58.50
8103;DHT22;4094;49.948;11.574;2023-04-08T05:46:25;9.20;58.50
8103;DHT22;4094;49.948;11.574;2023-04-08T05:48:56;9.20;58.80
8103;DHT22;4094;49.948;11.574;2023-04-08T05:51:25;9.20;58.90
8103;DHT22;4094;49.948;11.574;2023-04-08T05:53:54;9.20;58.80
8103;DHT22;4094;49.948;11.574;2023-04-08T05:56:24;9.20;58.90
8103;DHT22;4094;49.948;11.574;2023-04-08T05:58:53;9.20;59.00
8103;DHT22;4094;49.948;11.574;2023-04-08T06:01:22;9.20;59.10
8103;DHT22;4094;49.948;11.574;2023-04-08T06:03:52;9.20;59.10
8103;DHT22;4094;49.948;11.574;2023-04-08T06:06:24;9.20;59.30
8103;DHT22;4094;49.948;11.574;2023-04-08T06:08:54;9.20;59.30
8103;DHT22;4094;49.948;11.574;2023-04-08T06:11:23;9.20;59.40
8103;DHT22;4094;49.948;11.574;2023-04-08T06:13:53;9.20;59.70
8103;DHT22;4094;49.948;11.574;2023-04-08T06:16:22;9.20;60.50
8103;DHT22;4094;49.948;11.574;2023-04-08T06:18:51;9.20;59.70
8103;DHT22;4094;49.948;11.574;2023-04-08T06:21:21;9.20;59.60
8103;DHT22;4094;49.948;11.574;2023-04-08T06:23:51;9.20;59.80
8103;DHT22;4094;49.948;11.574;2023-04-08T06:26:21;9.20;59.90
8103;DHT22;4094;49.948;11.574;2023-04-08T06:28:50;9.20;59.90
8103;DHT22;4094;49.948;11.574;2023-04-08T06:31:20;9.20;60.00
8103;DHT22;4094;49.948;11.574;2023-04-08T06:33:49;9.20;60.00
8103;DHT22;4094;49.948;11.574;2023-04-08T06:36:19;9.20;60.20
8103;DHT22;4094;49.948;11.574;2023-04-08T06:38:48;9.30;60.40
8103;DHT22;4094;49.948;11.574;2023-04-08T06:41:20;9.30;60.30
8103;DHT22;4094;49.948;11.574;2023-04-08T06:43:50;9.30;60.50
8103;DHT22;4094;49.948;11.574;2023-04-08T06:46:19;9.30;60.60
8103;DHT22;4094;49.948;11.574;2023-04-08T06:48:48;9.30;60.60
8103;DHT22;4094;49.948;11.574;2023-04-08T06:51:18;9.30;60.60
8103;DHT22;4094;49.948;11.574;2023-04-08T06:53:47;9.30;60.70
8103;DHT22;4094;49.948;11.574;2023-04-08T06:56:17;9.30;60.90
8103;DHT22;4094;49.948;11.574;2023-04-08T06:58:49;9.30;60.90
8103;DHT22;4094;49.948;11.574;2023-04-08T07:01:18;9.40;61.20
8103;DHT22;4094;49.948;11.574;2023-04-08T07:03:47;9.40;61.00
8103;DHT22;4094;49.948;11.574;2023-04-08T07:06:16;9.40;61.20
8103;DHT22;4094;49.948;11.574;2023-04-08T07:08:46;9.40;61.40
8103;DHT22;4094;49.948;11.574;2023-04-08T07:11:15;9.50;61.30
8103;DHT22;4094;49.948;11.574;2023-04-08T07:13:44;9.50;61.40
8103;DHT22;4094;49.948;11.574;2023-04-08T07:16:15;9.50;61.40
8103;DHT22;4094;49.948;11.574;2023-04-08T07:18:44;9.50;61.50
8103;DHT22;4094;49.948;11.574;2023-04-08T07:21:14;9.60;61.50
8103;DHT22;4094;49.948;11.574;2023-04-08T07:23:44;9.60;61.60
8103;DHT22;4094;49.948;11.574;2023-04-08T07:26:14;9.60;61.60
8103;DHT22;4094;49.948;11.574;2023-04-08T07:28:43;9.70;61.80
8103;DHT22;4094;49.948;11.574;2023-04-08T07:31:15;9.70;61.80
8103;DHT22;4094;49.948;11.574;2023-04-08T07:33:45;9.80;62.00
8103;DHT22;4094;49.948;11.574;2023-04-08T07:36:14;9.80;62.10
8103;DHT22;4094;49.948;11.574;2023-04-08T07:38:45;9.90;61.80
8103;DHT22;4094;49.948;11.574;2023-04-08T07:41:15;9.90;61.70
8103;DHT22;4094;49.948;11.574;2023-04-08T07:43:44;9.90;61.70
8103;DHT22;4094;49.948;11.574;2023-04-08T07:46:14;10.00;61.80
8103;DHT22;4094;49.948;11.574;2023-04-08T07:48:44;10.00;62.00
8103;DHT22;4094;49.948;11.574;2023-04-08T07:51:14;10.00;62.00
8103;DHT22;4094;49.948;11.574;2023-04-08T07:53:47;10.00;61.80
8103;DHT22;4094;49.948;11.574;2023-04-08T07:56:16;10.00;62.00
8103;DHT22;4094;49.948;11.574;2023-04-08T07:58:46;10.00;61.90
8103;DHT22;4094;49.948;11.574;2023-04-08T08:01:22;10.10;62.20
8103;DHT22;4094;49.948;11.574;2023-04-08T08:03:51;10.10;62.40
8103;DHT22;4094;49.948;11.574;2023-04-08T08:06:21;10.20;62.40
8103;DHT22;4094;49.948;11.574;2023-04-08T08:08:50;10.20;62.50
8103;DHT22;4094;49.948;11.574;2023-04-08T08:11:19;10.20;62.60
8103;DHT22;4094;49.948;11.574;2023-04-08T08:13:49;10.20;62.50
8103;DHT22;4094;49.948;11.574;2023-04-08T08:16:18;10.30;62.70
8103;DHT22;4094;49.948;11.574;2023-04-08T08:18:49;10.30;62.80
8103;DHT22;4094;49.948;11.574;2023-04-08T08:21:18;10.40;62.50
8103;DHT22;4094;49.948;11.574;2023-04-08T08:23:47;10.40;62.30
8103;DHT22;4094;49.948;11.574;2023-04-08T08:26:17;10.50;62.70
8103;DHT22;4094;49.948;11.574;2023-04-08T08:28:46;10.60;62.70
8103;DHT22;4094;49.948;11.574;2023-04-08T08:31:15;10.70;62.70
8103;DHT22;4094;49.948;11.574;2023-04-08T08:33:45;10.80;62.80
8103;DHT22;4094;49.948;11.574;2023-04-08T08:36:16;10.90;62.70
8103;DHT22;4094;49.948;11.574;2023-04-08T08:38:45;11.00;62.70
8103;DHT22;4094;49.948;11.574;2023-04-08T08:41:14;11.10;62.60
8103;DHT22;4094;49.948;11.574;2023-04-08T08:43:43;11.30;62.40
8103;DHT22;4094;49.948;11.574;2023-04-08T08:46:15;11.40;61.90
8103;DHT22;4094;49.948;11.574;2023-04-08T08:48:45;11.40;61.50
8103;DHT22;4094;49.948;11.574;2023-04-08T08:51:15;11.50;61.30
8103;DHT22;4094;49.948;11.574;2023-04-08T08:53:45;11.50;61.10
8103;DHT22;4094;49.948;11.574;2023-04-08T08:56:14;11.50;61.00
8103;DHT22;4094;49.948;11.574;2023-04-08T08:58:46;11.60;60.90
8103;DHT22;4094;49.948;11.574;2023-04-08T09:01:32;11.60;60.90
8103;DHT22;4094;49.948;11.574;2023-04-08T09:04:10;11.70;61.00
8103;DHT22;4094;49.948;11.574;2023-04-08T09:06:43;11.70;60.80
8103;DHT22;4094;49.948;11.574;2023-04-08T09:09:13;11.70;60.50
8103;DHT22;4094;49.948;11.574;2023-04-08T09:11:44;11.80;60.70
8103;DHT22;4094;49.948;11.574;2023-04-08T09:14:18;11.80;61.00
8103;DHT22;4094;49.948;11.574;2023-04-08T09:16:47;11.90;60.70
8103;DHT22;4094;49.948;11.574;2023-04-08T09:19:17;11.90;60.30
8103;DHT22;4094;49.948;11.574;2023-04-08T09:22:06;12.00;60.00
8103;DHT22;4094;49.948;11.574;2023-04-08T09:24:36;12.00;59.90
8103;DHT22;4094;49.948;11.574;2023-04-08T09:27:06;12.00;59.80
8103;DHT22;4094;49.948;11.574;2023-04-08T09:29:35;12.00;59.80
8103;DHT22;4094;49.948;11.574;2023-04-08T09:32:06;12.00;59.70
8103;DHT22;4094;49.948;11.574;2023-04-08T09:34:36;12.00;59.60
8103;DHT22;4094;49.948;11.574;2023-04-08T09:37:08;12.00;59.50
8103;DHT22;4094;49.948;11.574;2023-04-08T09:39:37;12.00;59.50
8103;DHT22;4094;49.948;11.574;2023-04-08T09:42:08;12.00;59.50
8103;DHT22;4094;49.948;11.574;2023-04-08T09:44:41;12.00;59.80
8103;DHT22;4094;49.948;11.574;2023-04-08T09:47:18;12.00;59.70
8103;DHT22;4094;49.948;11.574;2023-04-08T09:49:52;12.00;59.70
8103;DHT22;4094;49.948;11.574;2023-04-08T09:52:30;12.00;59.60
8103;DHT22;4094;49.948;11.574;2023-04-08T09:55:03;12.10;59.50
8103;DHT22;4094;49.948;11.574;2023-04-08T09:57:39;12.10;59.50
8103;DHT22;4094;49.948;11.574;2023-04-08T10:00:12;12.10;59.50
8103;DHT22;4094;49.948;11.574;2023-04-08T10:02:50;12.10;59.40
8103;DHT22;4094;49.948;11.574;2023-04-08T10:05:21;12.10;59.30
8103;DHT22;4094;49.948;11.574;2023-04-08T10:07:55;12.10;59.30
8103;DHT22;4094;49.948;11.574;2023-04-08T10:10:24;12.10;59.20
8103;DHT22;4094;49.948;11.574;2023-04-08T10:12:54;12.00;59.20
8103;DHT22;4094;49.948;11.574;2023-04-08T10:15:28;12.00;59.20
8103;DHT22;4094;49.948;11.574;2023-04-08T10:18:31;12.00;59.40
8103;DHT22;4094;49.948;11.574;2023-04-08T10:21:34;12.00;59.30
8103;DHT22;4094;49.948;11.574;2023-04-08T10:24:08;11.90;59.30
8103;DHT22;4094;49.948;11.574;2023-04-08T10:26:39;11.90;59.20
8103;DHT22;4094;49.948;11.574;2023-04-08T10:29:42;11.90;59.30
8103;DHT22;4094;49.948;11.574;2023-04-08T10:32:27;11.90;59.40
8103;DHT22;4094;49.948;11.574;2023-04-08T10:34:57;11.90;59.50
8103;DHT22;4094;49.948;11.574;2023-04-08T10:37:26;11.90;59.50
8103;DHT22;4094;49.948;11.574;2023-04-08T10:39:57;11.90;59.50
8103;DHT22;4094;49.948;11.574;2023-04-08T10:42:27;11.90;59.50
8103;DHT22;4094;49.948;11.574;2023-04-08T10:45:00;11.90;59.50
8103;DHT22;4094;49.948;11.574;2023-04-08T10:47:30;12.00;59.60
8103;DHT22;4094;49.948;11.574;2023-04-08T10:49:59;12.00;59.40
8103;DHT22;4094;49.948;11.574;2023-04-08T10:52:29;12.00;59.40
8103;DHT22;4094;49.948;11.574;2023-04-08T10:55:02;12.00;59.30
8103;DHT22;4094;49.948;11.574;2023-04-08T10:57:31;12.00;59.30
8103;DHT22;4094;49.948;11.574;2023-04-08T11:00:01;12.00;59.40
8103;DHT22;4094;49.948;11.574;2023-04-08T11:02:32;12.00;59.50
8103;DHT22;4094;49.948;11.574;2023-04-08T11:05:02;12.10;59.70
8103;DHT22;4094;49.948;11.574;2023-04-08T11:07:32;12.10;59.60
8103;DHT22;4094;49.948;11.574;2023-04-08T11:10:04;12.20;59.80
8103;DHT22;4094;49.948;11.574;2023-04-08T11:12:33;12.30;60.10
8103;DHT22;4094;49.948;11.574;2023-04-08T11:15:04;12.40;60.00
8103;DHT22;4094;49.948;11.574;2023-04-08T11:17:34;12.50;59.80
8103;DHT22;4094;49.948;11.574;2023-04-08T11:20:05;12.70;59.70
8103;DHT22;4094;49.948;11.574;2023-04-08T11:22:36;12.80;59.20
8103;DHT22;4094;49.948;11.574;2023-04-08T11:25:07;12.90;58.80
8103;DHT22;4094;49.948;11.574;2023-04-08T11:27:37;12.90;58.40
8103;DHT22;4094;49.948;11.574;2023-04-08T11:30:08;13.00;58.20
8103;DHT22;4094;49.948;11.574;2023-04-08T11:32:38;13.00;58.10
8103;DHT22;4094;49.948;11.574;2023-04-08T11:35:08;13.00;57.80
8103;DHT22;4094;49.948;11.574;2023-04-08T11:37:39;13.00;57.60
8103;DHT22;4094;49.948;11.574;2023-04-08T11:40:12;13.10;57.70
8103;DHT22;4094;49.948;11.574;2023-04-08T11:42:41;13.00;57.60
8103;DHT22;4094;49.948;11.574;2023-04-08T11:45:15;13.00;57.50
8103;DHT22;4094;49.948;11.574;2023-04-08T11:47:45;13.00;57.30
8103;DHT22;4094;49.948;11.574;2023-04-08T11:50:22;13.00;57.10
8103;DHT22;4094;49.948;11.574;2023-04-08T11:52:52;13.00;57.20
8103;DHT22;4094;49.948;11.574;2023-04-08T11:55:25;13.00;57.50
8103;DHT22;4094;49.948;11.574;2023-04-08T11:57:56;12.90;57.30
8103;DHT22;4094;49.948;11.574;2023-04-08T12:00:25;12.90;57.40
8103;DHT22;4094;49.948;11.574;2023-04-08T12:02:55;13.00;57.50
8103;DHT22;4094;49.948;11.574;2023-04-08T12:05:24;13.00;57.50
8103;DHT22;4094;49.948;11.574;2023-04-08T12:07:53;13.00;57.40
8103;DHT22;4094;49.948;11.574;2023-04-08T12:10:24;13.10;57.40
8103;DHT22;4094;49.948;11.574;2023-04-08T12:12:53;13.20;57.20
8103;DHT22;4094;49.948;11.574;2023-04-08T12:15:23;13.30;57.10
8103;DHT22;4094;49.948;11.574;2023-04-08T12:17:52;13.40;57.00
8103;DHT22;4094;49.948;11.574;2023-04-08T12:20:21;13.40;56.60
8103;DHT22;4094;49.948;11.574;2023-04-08T12:22:50;13.50;56.40
8103;DHT22;4094;49.948;11.574;2023-04-08T12:25:20;13.50;56.40
8103;DHT22;4094;49.948;11.574;2023-04-08T12:27:50;13.50;56.20
8103;DHT22;4094;49.948;11.574;2023-04-08T12:30:20;13.50;55.90
8103;DHT22;4094;49.948;11.574;2023-04-08T12:32:49;13.50;55.80
8103;DHT22;4094;49.948;11.574;2023-04-08T12:35:19;13.60;56.00
8103;DHT22;4094;49.948;11.574;2023-04-08T12:37:48;13.60;55.50
8103;DHT22;4094;49.948;11.574;2023-04-08T12:40:17;13.60;55.60
8103;DHT22;4094;49.948;11.574;2023-04-08T12:42:47;13.60;55.50
8103;DHT22;4094;49.948;11.574;2023-04-08T12:45:18;13.60;55.10
8103;DHT22;4094;49.948;11.574;2023-04-08T12:47:47;13.70;55.00
8103;DHT22;4094;49.948;11.574;2023-04-08T12:50:16;13.70;55.10
8103;DHT22;4094;49.948;11.574;2023-04-08T12:52:45;13.70;55.20
8103;DHT22;4094;49.948;11.574;2023-04-08T12:55:15;13.70;55.20
8103;DHT22;4094;49.948;11.574;2023-04-08T12:57:45;13.60;55.00
8103;DHT22;4094;49.948;11.574;2023-04-08T13:00:14;13.60;54.70
8103;DHT22;4094;49.948;11.574;2023-04-08T13:02:45;13.60;54.90
8103;DHT22;4094;49.948;11.574;2023-04-08T13:05:14;13.60;54.90
8103;DHT22;4094;49.948;11.574;2023-04-08T13:07:50;13.70;55.20
8103;DHT22;4094;49.948;11.574;2023-04-08T13:10:19;13.80;55.00
8103;DHT22;4094;49.948;11.574;2023-04-08T13:12:48;13.90;55.00
8103;DHT22;4094;49.948;11.574;2023-04-08T13:15:17;14.00;54.90
8103;DHT22;4094;49.948;11.574;2023-04-08T13:17:48;14.10;54.60
8103;DHT22;4094;49.948;11.574;2023-04-08T13:20:18;14.20;54.10
8103;DHT22;4094;49.948;11.574;2023-04-08T13:22:47;14.20;53.50
8103;DHT22;4094;49.948;11.574;2023-04-08T13:25:16;14.20;53.50
8103;DHT22;4094;49.948;11.574;2023-04-08T13:27:46;14.20;53.80
8103;DHT22;4094;49.948;11.574;2023-04-08T13:30:15;14.20;53.70
8103;DHT22;4094;49.948;11.574;2023-04-08T13:32:44;14.10;53.50
8103;DHT22;4094;49.948;11.574;2023-04-08T13:35:15;14.20;53.70
8103;DHT22;4094;49.948;11.574;2023-04-08T13:37:44;14.20;53.80
8103;DHT22;4094;49.948;11.574;2023-04-08T13:40:13;14.30;53.70
8103;DHT22;4094;49.948;11.574;2023-04-08T13:42:42;14.40;53.30
8103;DHT22;4094;49.948;11.574;2023-04-08T13:45:11;14.50;53.20
8103;DHT22;4094;49.948;11.574;2023-04-08T13:47:40;14.70;53.40
8103;DHT22;4094;49.948;11.574;2023-04-08T13:50:09;14.70;52.90
8103;DHT22;4094;49.948;11.574;2023-04-08T13:52:39;14.80;52.50
8103;DHT22;4094;49.948;11.574;2023-04-08T13:55:08;14.90;52.30
8103;DHT22;4094;49.948;11.574;2023-04-08T13:57:37;14.90;52.50
8103;DHT22;4094;49.948;11.574;2023-04-08T14:00:07;14.90;52.00
8103;DHT22;4094;49.948;11.574;2023-04-08T14:02:37;14.90;51.70
8103;DHT22;4094;49.948;11.574;2023-04-08T14:05:07;14.80;51.80
8103;DHT22;4094;49.948;11.574;2023-04-08T14:07:36;14.80;51.70
8103;DHT22;4094;49.948;11.574;2023-04-08T14:10:08;14.70;51.80
8103;DHT22;4094;49.948;11.574;2023-04-08T14:12:37;14.70;52.00
8103;DHT22;4094;49.948;11.574;2023-04-08T14:15:07;14.60;52.40
8103;DHT22;4094;49.948;11.574;2023-04-08T14:17:36;14.50;52.90
8103;DHT22;4094;49.948;11.574;2023-04-08T14:20:06;14.50;53.10
8103;DHT22;4094;49.948;11.574;2023-04-08T14:22:36;14.40;53.20
8103;DHT22;4094;49.948;11.574;2023-04-08T14:25:07;14.30;53.50
8103;DHT22;4094;49.948;11.574;2023-04-08T14:27:36;14.20;53.70
8103;DHT22;4094;49.948;11.574;2023-04-08T14:30:21;14.10;54.00
8103;DHT22;4094;49.948;11.574;2023-04-08T14:32:50;14.10;54.20
8103;DHT22;4094;49.948;11.574;2023-04-08T14:35:20;14.00;54.30
8103;DHT22;4094;49.948;11.574;2023-04-08T14:37:49;13.90;54.50
8103;DHT22;4094;49.948;11.574;2023-04-08T14:40:20;13.90;54.30
8103;DHT22;4094;49.948;11.574;2023-04-08T14:42:49;13.90;54.20
8103;DHT22;4094;49.948;11.574;2023-04-08T14:45:18;13.80;54.20
8103;DHT22;4094;49.948;11.574;2023-04-08T14:47:48;13.80;54.10
8103;DHT22;4094;49.948;11.574;2023-04-08T14:50:18;13.80;54.20
8103;DHT22;4094;49.948;11.574;2023-04-08T14:52:47;13.80;54.10
8103;DHT22;4094;49.948;11.574;2023-04-08T14:55:17;13.80;54.30
8103;DHT22;4094;49.948;11.574;2023-04-08T14:57:50;13.80;54.30
8103;DHT22;4094;49.948;11.574;2023-04-08T15:00:19;13.80;54.10
8103;DHT22;4094;49.948;11.574;2023-04-08T15:02:48;13.80;54.00
8103;DHT22;4094;49.948;11.574;2023-04-08T15:05:18;13.70;54.00
8103;DHT22;4094;49.948;11.574;2023-04-08T15:07:48;13.70;54.00
8103;DHT22;4094;49.948;11.574;2023-04-08T15:10:17;13.70;54.10
8103;DHT22;4094;49.948;11.574;2023-04-08T15:12:46;13.70;54.30
8103;DHT22;4094;49.948;11.574;2023-04-08T15:15:16;13.70;54.30
8103;DHT22;4094;49.948;11.574;2023-04-08T15:17:46;13.60;54.20
8103;DHT22;4094;49.948;11.574;2023-04-08T15:20:18;13.60;54.30
8103;DHT22;4094;49.948;11.574;2023-04-08T15:22:48;13.60;54.40
8103;DHT22;4094;49.948;11.574;2023-04-08T15:25:17;13.60;54.40
8103;DHT22;4094;49.948;11.574;2023-04-08T15:27:47;13.60;54.40
8103;DHT22;4094;49.948;11.574;2023-04-08T15:30:18;13.60;54.30
8103;DHT22;4094;49.948;11.574;2023-04-08T15:32:51;13.60;54.40
8103;DHT22;4094;49.948;11.574;2023-04-08T15:35:23;13.60;54.40
8103;DHT22;4094;49.948;11.574;2023-04-08T15:37:52;13.60;54.40
8103;DHT22;4094;49.948;11.574;2023-04-08T15:40:21;13.60;54.50
8103;DHT22;4094;49.948;11.574;2023-04-08T15:42:51;13.60;54.50
8103;DHT22;4094;49.948;11.574;2023-04-08T15:45:22;13.60;54.60
8103;DHT22;4094;49.948;11.574;2023-04-08T15:47:51;13.50;54.50
8103;DHT22;4094;49.948;11.574;2023-04-08T15:50:20;13.50;54.60
8103;DHT22;4094;49.948;11.574;2023-04-08T15:52:49;13.50;54.60
8103;DHT22;4094;49.948;11.574;2023-04-08T15:55:18;13.50;54.70
8103;DHT22;4094;49.948;11.574;2023-04-08T15:57:48;13.50;54.80
8103;DHT22;4094;49.948;11.574;2023-04-08T16:00:17;13.50;54.70
8103;DHT22;4094;49.948;11.574;2023-04-08T16:02:48;13.50;54.60
8103;DHT22;4094;49.948;11.574;2023-04-08T16:05:18;13.50;54.60
8103;DHT22;4094;49.948;11.574;2023-04-08T16:07:47;13.50;54.50
8103;DHT22;4094;49.948;11.574;2023-04-08T16:10:16;13.50;54.40